createdAt,value
2018-05-23T00:00:37.900Z,24.46
2018-05-23T00:01:47.322Z,24.39
2018-05-23T00:02:57.027Z,24.31
2018-05-23T00:04:06.449Z,24.32
2018-05-23T00:05:15.866Z,24.43
2018-05-23T00:06:25.269Z,24.4
2018-05-23T00:07:34.445Z,24.43
2018-05-23T00:08:44.118Z,24.42
2018-05-23T00:09:53.294Z,24.4
2018-05-23T00:11:02.462Z,24.4
2018-05-23T00:12:11.918Z,24.43
2018-05-23T00:13:21.607Z,24.34
2018-05-23T00:14:30.512Z,24.43
2018-05-23T00:15:39.417Z,24.3
2018-05-23T00:16:48.674Z,24.4
2018-05-23T00:17:58.372Z,24.31
2018-05-23T00:19:07.832Z,24.46
2018-05-23T00:20:17.255Z,24.37
2018-05-23T00:21:26.951Z,24.31
2018-05-23T00:22:36.644Z,24.34
2018-05-23T00:23:45.814Z,24.31
2018-05-23T00:24:54.716Z,24.45
2018-05-23T00:26:04.167Z,24.39
2018-05-23T00:27:13.349Z,24.4
2018-05-23T00:28:23.305Z,24.4
2018-05-23T00:29:32.472Z,24.31
2018-05-23T00:30:41.904Z,24.35
2018-05-23T00:31:51.585Z,24.32
2018-05-23T00:33:00.743Z,24.31
2018-05-23T00:34:10.155Z,24.42
2018-05-23T00:35:19.329Z,24.28
2018-05-23T00:36:28.478Z,24.28
2018-05-23T00:37:37.899Z,24.43
2018-05-23T00:38:47.310Z,24.42
2018-05-23T00:39:57.261Z,24.43
2018-05-23T00:41:06.667Z,24.4
2018-05-23T00:42:16.345Z,24.46
2018-05-23T00:43:26.297Z,24.42
2018-05-23T00:44:35.211Z,24.31
2018-05-23T00:45:45.546Z,24.4
2018-05-23T00:46:54.990Z,24.43
2018-05-23T00:48:04.162Z,24.39
2018-05-23T00:49:13.324Z,24.31
2018-05-23T00:50:23.307Z,24.3
2018-05-23T00:51:33.097Z,24.35
2018-05-23T00:52:42.880Z,24.39
2018-05-23T00:53:52.565Z,24.4
2018-05-23T00:55:01.986Z,24.47
2018-05-23T00:56:11.239Z,24.42
2018-05-23T00:57:20.922Z,24.43
2018-05-23T00:58:30.364Z,24.31
2018-05-23T00:59:39.258Z,24.3
2018-05-23T01:00:48.407Z,24.3
2018-05-23T01:01:57.840Z,24.35
2018-05-23T01:03:07.031Z,24.45
2018-05-23T01:04:16.697Z,24.34
2018-05-23T01:05:25.588Z,24.4
2018-05-23T01:06:35.274Z,24.3
2018-05-23T01:07:44.982Z,24.43
2018-05-23T01:08:54.840Z,24.31
2018-05-23T01:10:04.009Z,24.39
2018-05-23T01:11:13.171Z,24.4
2018-05-23T01:12:22.867Z,24.28
2018-05-23T01:13:32.552Z,24.27
2018-05-23T01:14:41.449Z,24.24
2018-05-23T01:15:50.632Z,24.43
2018-05-23T01:17:00.068Z,24.39
2018-05-23T01:18:09.536Z,24.4
2018-05-23T01:19:18.688Z,24.3
2018-05-23T01:20:28.125Z,24.39
2018-05-23T01:21:37.289Z,24.46
2018-05-23T01:22:46.461Z,24.34
2018-05-23T01:23:55.640Z,24.42
2018-05-23T01:25:05.057Z,24.34
2018-05-23T01:26:14.222Z,24.46
2018-05-23T01:27:23.381Z,24.43
2018-05-23T01:28:32.612Z,24.46
2018-05-23T01:29:42.316Z,24.4
2018-05-23T01:30:51.748Z,24.37
2018-05-23T01:32:01.438Z,24.34
2018-05-23T01:33:10.596Z,24.43
2018-05-23T01:34:20.335Z,24.22
2018-05-23T01:35:29.510Z,24.46
2018-05-23T01:36:38.794Z,24.4
2018-05-23T01:37:48.239Z,24.43
2018-05-23T01:38:57.930Z,24.45
2018-05-23T01:40:07.103Z,24.31
2018-05-23T01:41:17.043Z,24.35
2018-05-23T01:42:26.477Z,24.31
2018-05-23T01:43:35.701Z,24.32
2018-05-23T01:44:44.875Z,24.39
2018-05-23T01:45:54.045Z,24.31
2018-05-23T01:47:03.473Z,24.42
2018-05-23T01:48:12.385Z,24.34
2018-05-23T01:49:21.813Z,24.46
2018-05-23T01:50:30.989Z,24.37
2018-05-23T01:51:40.158Z,24.34
2018-05-23T01:52:49.592Z,24.28
2018-05-23T01:53:59.296Z,24.39
2018-05-23T01:55:08.715Z,24.42
2018-05-23T01:56:17.884Z,24.43
2018-05-23T01:57:27.288Z,24.37
2018-05-23T01:58:36.776Z,24.45
2018-05-23T01:59:46.229Z,24.46
2018-05-23T02:00:55.141Z,24.39
2018-05-23T02:02:05.166Z,24.37
2018-05-23T02:03:14.902Z,24.43
2018-05-23T02:04:24.586Z,24.4
2018-05-23T02:05:34.020Z,24.46
2018-05-23T02:06:43.466Z,24.31
2018-05-23T02:07:52.658Z,24.49
2018-05-23T02:09:02.347Z,24.46
2018-05-23T02:10:11.773Z,24.39
2018-05-23T02:11:21.708Z,24.34
2018-05-23T02:12:30.861Z,24.31
2018-05-23T02:13:40.305Z,24.46
2018-05-23T02:14:49.483Z,24.39
2018-05-23T02:15:58.667Z,24.45
2018-05-23T02:17:07.608Z,24.35
2018-05-23T02:18:17.023Z,24.37
2018-05-23T02:19:26.728Z,24.43
2018-05-23T02:20:35.917Z,24.43
2018-05-23T02:21:45.329Z,24.39
2018-05-23T02:22:54.756Z,24.47
2018-05-23T02:24:04.443Z,24.25
2018-05-23T02:25:13.870Z,24.3
2018-05-23T02:26:23.055Z,24.35
2018-05-23T02:27:32.247Z,24.43
2018-05-23T02:28:41.407Z,24.39
2018-05-23T02:29:50.564Z,24.43
2018-05-23T02:30:59.726Z,24.39
2018-05-23T02:32:09.179Z,24.43
2018-05-23T02:33:18.888Z,24.3
2018-05-23T02:34:28.342Z,24.45
2018-05-23T02:35:37.766Z,24.39
2018-05-23T02:36:47.711Z,24.42
2018-05-23T02:37:57.401Z,24.43
2018-05-23T02:39:06.825Z,24.34
2018-05-23T02:40:16.291Z,24.43
2018-05-23T02:41:26.270Z,24.39
2018-05-23T02:42:35.694Z,24.45
2018-05-23T02:43:45.402Z,24.31
2018-05-23T02:44:54.607Z,24.37
2018-05-23T02:46:03.529Z,24.42
2018-05-23T02:47:13.492Z,24.43
2018-05-23T02:48:22.970Z,24.32
2018-05-23T02:49:32.413Z,24.4
2018-05-23T02:50:42.098Z,24.39
2018-05-23T02:51:51.799Z,24.34
2018-05-23T02:53:00.952Z,24.4
2018-05-23T02:54:10.641Z,24.28
2018-05-23T02:55:20.112Z,24.32
2018-05-23T02:56:29.816Z,24.32
2018-05-23T02:57:39.522Z,24.32
2018-05-23T02:58:49.238Z,24.31
2018-05-23T02:59:59.180Z,24.24
2018-05-23T03:01:08.402Z,24.31
2018-05-23T03:02:18.152Z,24.37
2018-05-23T03:03:27.610Z,24.32
2018-05-23T03:04:37.043Z,24.31
2018-05-23T03:05:46.808Z,24.34
2018-05-23T03:06:56.239Z,24.32
2018-05-23T03:08:05.682Z,24.28
2018-05-23T03:09:15.365Z,24.37
2018-05-23T03:10:25.034Z,24.31
2018-05-23T03:11:34.461Z,24.34
2018-05-23T03:12:43.905Z,24.32
2018-05-23T03:13:53.342Z,24.35
2018-05-23T03:15:02.513Z,24.3
2018-05-23T03:16:12.185Z,24.32
2018-05-23T03:17:21.075Z,24.32
2018-05-23T03:18:30.498Z,24.31
2018-05-23T03:19:39.648Z,24.22
2018-05-23T03:20:49.079Z,24.35
2018-05-23T03:21:58.820Z,24.31
2018-05-23T03:23:08.112Z,24.32
2018-05-23T03:24:17.014Z,24.3
2018-05-23T03:25:26.697Z,24.2
2018-05-23T03:26:36.112Z,24.34
2018-05-23T03:27:45.540Z,24.28
2018-05-23T03:28:54.688Z,24.31
2018-05-23T03:30:03.587Z,24.37
2018-05-23T03:31:12.754Z,24.3
2018-05-23T03:32:21.945Z,24.32
2018-05-23T03:33:31.376Z,24.31
2018-05-23T03:34:41.083Z,24.31
2018-05-23T03:35:50.493Z,24.3
2018-05-23T03:36:59.657Z,24.39
2018-05-23T03:38:08.565Z,24.31
2018-05-23T03:39:17.976Z,24.28
2018-05-23T03:40:26.922Z,24.35
2018-05-23T03:41:36.091Z,24.28
2018-05-23T03:42:45.774Z,24.31
2018-05-23T03:43:55.206Z,24.24
2018-05-23T03:45:04.121Z,24.31
2018-05-23T03:46:13.552Z,24.31
2018-05-23T03:47:23.252Z,24.39
2018-05-23T03:48:32.732Z,24.28
2018-05-23T03:49:41.906Z,24.27
2018-05-23T03:50:51.092Z,24.27
2018-05-23T03:52:00.529Z,24.28
2018-05-23T03:53:09.451Z,24.32
2018-05-23T03:54:18.621Z,24.3
2018-05-23T03:55:28.458Z,24.31
2018-05-23T03:56:37.899Z,24.24
2018-05-23T03:57:47.332Z,24.35
2018-05-23T03:58:56.993Z,24.32
2018-05-23T04:00:06.412Z,24.34
2018-05-23T04:01:16.104Z,24.34
2018-05-23T04:02:25.792Z,24.25
2018-05-23T04:03:34.962Z,24.35
2018-05-23T04:04:44.708Z,24.31
2018-05-23T04:05:54.432Z,24.24
2018-05-23T04:07:03.854Z,24.25
2018-05-23T04:08:13.029Z,24.3
2018-05-23T04:09:22.700Z,24.28
2018-05-23T04:10:32.515Z,24.32
2018-05-23T04:11:41.696Z,24.25
2018-05-23T04:12:50.622Z,24.27
2018-05-23T04:14:00.042Z,24.31
2018-05-23T04:15:09.465Z,24.3
2018-05-23T04:16:18.654Z,24.24
2018-05-23T04:17:27.815Z,24.28
2018-05-23T04:18:37.002Z,24.31
2018-05-23T04:19:46.669Z,24.32
2018-05-23T04:20:55.864Z,24.35
2018-05-23T04:22:05.557Z,24.31
2018-05-23T04:23:14.493Z,24.31
2018-05-23T04:24:23.656Z,24.35
2018-05-23T04:25:32.573Z,24.31
2018-05-23T04:26:41.731Z,24.28
2018-05-23T04:27:51.154Z,24.27
2018-05-23T04:29:00.857Z,24.3
2018-05-23T04:30:09.773Z,24.28
2018-05-23T04:31:18.969Z,24.28
2018-05-23T04:32:28.693Z,24.3
2018-05-23T04:33:38.384Z,24.3
2018-05-23T04:34:47.306Z,24.21
2018-05-23T04:35:57.076Z,24.3
2018-05-23T04:37:06.583Z,24.28
2018-05-23T04:38:15.746Z,24.24
2018-05-23T04:39:24.769Z,24.27
2018-05-23T04:40:34.100Z,24.27
2018-05-23T04:41:43.026Z,24.34
2018-05-23T04:42:52.709Z,24.13
2018-05-23T04:44:02.168Z,24.31
2018-05-23T04:45:11.617Z,24.34
2018-05-23T04:46:21.065Z,24.27
2018-05-23T04:47:30.596Z,24.34
2018-05-23T04:48:40.419Z,24.3
2018-05-23T04:49:50.251Z,24.3
2018-05-23T04:50:59.730Z,24.31
2018-05-23T04:52:08.922Z,24.32
2018-05-23T04:53:18.332Z,24.32
2018-05-23T04:54:28.032Z,24.32
2018-05-23T04:55:37.451Z,24.24
2018-05-23T04:56:46.642Z,24.18
2018-05-23T04:57:56.344Z,24.27
2018-05-23T04:59:06.038Z,24.3
2018-05-23T05:00:15.739Z,24.28
2018-05-23T05:01:24.928Z,24.15
2018-05-23T05:02:34.850Z,24.32
2018-05-23T05:03:44.308Z,24.27
2018-05-23T05:04:53.755Z,24.27
2018-05-23T05:06:03.197Z,24.31
2018-05-23T05:07:12.663Z,24.3
2018-05-23T05:08:21.864Z,24.32
2018-05-23T05:09:30.963Z,24.24
2018-05-23T05:10:39.922Z,24.34
2018-05-23T05:11:49.350Z,24.28
2018-05-23T05:12:59.035Z,24.28
2018-05-23T05:14:08.753Z,24.27
2018-05-23T05:15:18.466Z,24.27
2018-05-23T05:16:27.371Z,24.25
2018-05-23T05:17:37.043Z,24.1
2018-05-23T05:18:46.739Z,24.27
2018-05-23T05:19:56.777Z,24.28
2018-05-23T05:21:06.000Z,24.24
2018-05-23T05:22:15.441Z,24.3
2018-05-23T05:23:24.897Z,24.28
2018-05-23T05:24:34.132Z,24.25
2018-05-23T05:25:43.078Z,24.25
2018-05-23T05:26:52.774Z,24.27
2018-05-23T05:28:02.458Z,24.3
2018-05-23T05:29:11.397Z,24.31
2018-05-23T05:30:20.845Z,24.2
2018-05-23T05:31:30.542Z,24.3
2018-05-23T05:32:39.701Z,24.28
2018-05-23T05:33:48.622Z,24.24
2018-05-23T05:34:57.804Z,24.25
2018-05-23T05:36:07.266Z,24.34
2018-05-23T05:37:16.181Z,24.31
2018-05-23T05:38:25.089Z,24.28
2018-05-23T05:39:34.529Z,24.28
2018-05-23T05:40:43.972Z,24.32
2018-05-23T05:41:53.387Z,24.28
2018-05-23T05:43:02.811Z,24.32
2018-05-23T05:44:11.726Z,24.24
2018-05-23T05:45:21.426Z,24.3
2018-05-23T05:46:30.890Z,24.28
2018-05-23T05:47:39.825Z,24.3
2018-05-23T05:48:49.254Z,24.32
2018-05-23T05:49:58.185Z,24.31
2018-05-23T05:51:07.623Z,24.28
2018-05-23T05:52:16.789Z,24.3
2018-05-23T05:53:26.532Z,24.27
2018-05-23T05:54:36.221Z,24.32
2018-05-23T05:55:45.906Z,24.25
2018-05-23T05:56:55.873Z,24.28
2018-05-23T05:58:05.332Z,24.3
2018-05-23T05:59:14.570Z,24.27
2018-05-23T06:00:24.274Z,24.28
2018-05-23T06:01:33.720Z,24.28
2018-05-23T06:02:43.442Z,24.27
2018-05-23T06:03:53.133Z,24.15
2018-05-23T06:05:02.300Z,24.31
2018-05-23T06:06:10.960Z,24.22
2018-05-23T06:07:20.930Z,24.27
2018-05-23T06:08:30.625Z,24.3
2018-05-23T06:09:39.739Z,24.27
2018-05-23T06:10:49.183Z,24.3
2018-05-23T06:11:58.631Z,24.31
2018-05-23T06:13:07.576Z,24.3
2018-05-23T06:14:16.791Z,24.31
2018-05-23T06:15:26.239Z,24.3
2018-05-23T06:16:35.685Z,24.21
2018-05-23T06:17:45.421Z,24.31
2018-05-23T06:18:54.867Z,24.27
2018-05-23T06:20:03.792Z,24.25
2018-05-23T06:21:13.214Z,24.28
2018-05-23T06:22:23.034Z,24.3
2018-05-23T06:23:32.679Z,24.28
2018-05-23T06:24:41.876Z,24.24
2018-05-23T06:25:51.316Z,24.3
2018-05-23T06:27:00.482Z,24.31
2018-05-23T06:28:10.193Z,24.28
2018-05-23T06:29:19.103Z,24.32
2018-05-23T06:30:29.156Z,24.28
2018-05-23T06:31:38.918Z,24.31
2018-05-23T06:32:48.636Z,24.31
2018-05-23T06:33:58.302Z,24.24
2018-05-23T06:35:07.474Z,24.21
2018-05-23T06:36:17.232Z,24.31
2018-05-23T06:37:26.944Z,24.27
2018-05-23T06:38:36.654Z,24.3
2018-05-23T06:39:46.380Z,24.28
2018-05-23T06:40:56.099Z,24.28
2018-05-23T06:42:05.550Z,24.34
2018-05-23T06:43:14.775Z,24.32
2018-05-23T06:44:23.946Z,24.13
2018-05-23T06:45:33.141Z,24.13
2018-05-23T06:46:43.106Z,24.3
2018-05-23T06:47:52.792Z,24.31
2018-05-23T06:49:01.713Z,24.08
2018-05-23T06:50:11.575Z,24.27
2018-05-23T06:51:20.729Z,24.24
2018-05-23T06:52:30.146Z,24.21
2018-05-23T06:53:38.812Z,24.09
2018-05-23T06:54:48.258Z,24.09
2018-05-23T06:55:57.181Z,24.25
2018-05-23T06:57:06.619Z,24.12
2018-05-23T06:58:16.076Z,24.28
2018-05-23T06:59:24.997Z,24.22
2018-05-23T07:00:34.425Z,24.25
2018-05-23T07:01:43.860Z,24.22
2018-05-23T07:02:52.529Z,24.3
2018-05-23T07:04:02.250Z,24.31
2018-05-23T07:05:11.978Z,24.28
2018-05-23T07:06:20.639Z,24.21
2018-05-23T07:07:30.047Z,24.25
2018-05-23T07:08:39.481Z,24.27
2018-05-23T07:09:48.644Z,24.24
2018-05-23T07:10:57.838Z,24.25
2018-05-23T07:12:07.353Z,24.2
2018-05-23T07:13:16.539Z,24.28
2018-05-23T07:14:25.213Z,24.2
2018-05-23T07:15:34.394Z,24.28
2018-05-23T07:16:43.298Z,24.32
2018-05-23T07:17:52.883Z,24.34
2018-05-23T07:19:02.968Z,24.27
2018-05-23T07:20:12.402Z,24.27
2018-05-23T07:21:22.072Z,24.34
2018-05-23T07:22:31.777Z,24.3
2018-05-23T07:23:41.276Z,24.32
2018-05-23T07:24:50.703Z,24.3
2018-05-23T07:25:59.391Z,24.3
2018-05-23T07:27:08.536Z,24.28
2018-05-23T07:28:18.210Z,24.32
2018-05-23T07:29:27.416Z,24.31
2018-05-23T07:30:36.988Z,24.31
2018-05-23T07:31:46.905Z,24.24
2018-05-23T07:32:56.837Z,24.31
2018-05-23T07:34:05.532Z,24.34
2018-05-23T07:35:15.001Z,24.32
2018-05-23T07:36:24.475Z,24.4
2018-05-23T07:37:33.404Z,24.32
2018-05-23T07:38:42.669Z,24.34
2018-05-23T07:39:51.915Z,24.35
2018-05-23T07:41:01.118Z,24.32
2018-05-23T07:42:10.591Z,24.34
2018-05-23T07:43:20.081Z,24.37
2018-05-23T07:44:29.284Z,24.34
2018-05-23T07:45:39.039Z,24.35
2018-05-23T07:46:48.770Z,24.42
2018-05-23T07:47:58.234Z,24.27
2018-05-23T07:49:07.949Z,24.4
2018-05-23T07:50:17.395Z,24.39
2018-05-23T07:51:26.826Z,24.34
2018-05-23T07:52:36.027Z,24.34
2018-05-23T07:53:45.251Z,24.42
2018-05-23T07:54:54.472Z,24.4
2018-05-23T07:56:03.724Z,24.39
2018-05-23T07:57:12.942Z,24.34
2018-05-23T07:58:22.432Z,24.4
2018-05-23T07:59:31.893Z,24.3
2018-05-23T08:00:40.857Z,24.47
2018-05-23T08:01:49.542Z,24.39
2018-05-23T08:02:59.266Z,24.46
2018-05-23T08:04:08.194Z,24.35
2018-05-23T08:05:17.700Z,24.39
2018-05-23T08:06:27.151Z,24.45
2018-05-23T08:07:36.068Z,24.25
2018-05-23T08:08:44.736Z,24.43
2018-05-23T08:09:54.458Z,24.39
2018-05-23T08:11:03.920Z,24.28
2018-05-23T08:12:13.163Z,24.31
2018-05-23T08:13:22.614Z,24.34
2018-05-23T08:14:32.046Z,24.45
2018-05-23T08:15:40.984Z,24.42
2018-05-23T08:16:50.418Z,24.3
2018-05-23T08:17:59.844Z,24.27
2018-05-23T08:19:09.043Z,24.34
2018-05-23T08:20:18.553Z,24.4
2018-05-23T08:21:28.532Z,24.4
2018-05-23T08:22:37.707Z,24.35
2018-05-23T08:23:46.879Z,24.32
2018-05-23T08:24:56.308Z,24.28
2018-05-23T08:26:06.022Z,24.31
2018-05-23T08:27:15.467Z,24.39
2018-05-23T08:28:24.893Z,24.4
2018-05-23T08:29:34.332Z,24.39
2018-05-23T08:30:44.056Z,24.31
2018-05-23T08:31:53.487Z,24.42
2018-05-23T08:33:02.685Z,24.47
2018-05-23T08:34:11.861Z,24.4
2018-05-23T08:35:21.288Z,24.32
2018-05-23T08:36:30.920Z,24.42
2018-05-23T08:37:40.350Z,24.32
2018-05-23T08:38:49.525Z,24.35
2018-05-23T08:39:59.046Z,24.31
2018-05-23T08:41:08.482Z,24.34
2018-05-23T08:42:17.389Z,24.47
2018-05-23T08:43:27.077Z,24.46
2018-05-23T08:44:36.518Z,24.31
2018-05-23T08:45:46.217Z,24.32
2018-05-23T08:46:55.916Z,24.4
2018-05-23T08:48:04.815Z,24.37
2018-05-23T08:49:13.987Z,24.45
2018-05-23T08:50:23.410Z,24.35
2018-05-23T08:51:32.893Z,24.32
2018-05-23T08:52:42.627Z,24.5
2018-05-23T08:53:51.826Z,24.43
2018-05-23T08:55:01.033Z,24.32
2018-05-23T08:56:10.450Z,24.34
2018-05-23T08:57:19.905Z,24.46
2018-05-23T08:58:29.080Z,24.46
2018-05-23T08:59:38.525Z,24.45
2018-05-23T09:00:48.005Z,24.45
2018-05-23T09:01:57.429Z,24.47
2018-05-23T09:03:06.352Z,24.46
2018-05-23T09:04:15.782Z,24.49
2018-05-23T09:05:25.494Z,24.43
2018-05-23T09:06:34.672Z,24.34
2018-05-23T09:07:43.616Z,24.42
2018-05-23T09:08:53.296Z,24.4
2018-05-23T09:10:02.997Z,24.35
2018-05-23T09:11:12.944Z,24.46
2018-05-23T09:12:22.818Z,24.4
2018-05-23T09:13:32.377Z,24.42
2018-05-23T09:14:41.838Z,24.42
2018-05-23T09:15:50.527Z,24.43
2018-05-23T09:16:59.435Z,24.4
2018-05-23T09:18:08.610Z,24.46
2018-05-23T09:19:17.790Z,24.46
2018-05-23T09:20:27.237Z,24.47
2018-05-23T09:21:36.924Z,24.35
2018-05-23T09:22:46.369Z,24.34
2018-05-23T09:23:55.812Z,24.35
2018-05-23T09:25:04.994Z,24.35
2018-05-23T09:26:14.447Z,24.46
2018-05-23T09:27:23.951Z,24.37
2018-05-23T09:28:33.129Z,24.42
2018-05-23T09:29:42.043Z,24.39
2018-05-23T09:30:51.824Z,24.4
2018-05-23T09:32:01.260Z,24.49
2018-05-23T09:33:11.293Z,24.45
2018-05-23T09:34:20.213Z,24.37
2018-05-23T09:35:29.665Z,24.43
2018-05-23T09:36:38.589Z,24.43
2018-05-23T09:37:47.783Z,24.37
2018-05-23T09:38:57.233Z,24.43
2018-05-23T09:40:06.669Z,24.43
2018-05-23T09:41:15.869Z,24.31
2018-05-23T09:42:25.065Z,24.43
2018-05-23T09:43:34.261Z,24.39
2018-05-23T09:44:43.451Z,24.5
2018-05-23T09:45:52.643Z,24.46
2018-05-23T09:47:01.844Z,24.43
2018-05-23T09:48:11.291Z,24.4
2018-05-23T09:49:20.223Z,24.43
2018-05-23T09:50:29.926Z,24.37
2018-05-23T09:51:39.109Z,24.42
2018-05-23T09:52:48.844Z,24.47
2018-05-23T09:53:58.317Z,24.42
2018-05-23T09:55:08.027Z,24.42
2018-05-23T09:56:17.572Z,24.42
2018-05-23T09:57:27.514Z,24.45
2018-05-23T09:58:37.239Z,24.45
2018-05-23T09:59:46.689Z,24.4
2018-05-23T10:00:56.124Z,24.42
2018-05-23T10:02:05.564Z,24.43
2018-05-23T10:03:14.521Z,24.47
2018-05-23T10:04:23.970Z,24.46
2018-05-23T10:05:33.688Z,24.5
2018-05-23T10:06:42.865Z,24.45
2018-05-23T10:07:52.310Z,24.39
2018-05-23T10:09:01.244Z,24.43
2018-05-23T10:10:10.173Z,24.5
2018-05-23T10:11:19.382Z,24.43
2018-05-23T10:12:28.566Z,24.52
2018-05-23T10:13:38.541Z,24.46
2018-05-23T10:14:47.730Z,24.45
2018-05-23T10:15:56.913Z,24.42
2018-05-23T10:17:06.388Z,24.42
2018-05-23T10:18:15.819Z,24.39
2018-05-23T10:19:24.742Z,24.43
2018-05-23T10:20:34.696Z,24.42
2018-05-23T10:21:44.324Z,24.42
2018-05-23T10:22:53.765Z,24.47
2018-05-23T10:24:03.495Z,24.43
2018-05-23T10:25:12.971Z,24.43
2018-05-23T10:26:22.544Z,24.37
2018-05-23T10:27:32.807Z,24.46
2018-05-23T10:28:42.563Z,24.46
2018-05-23T10:29:52.649Z,24.42
2018-05-23T10:31:02.060Z,24.45
2018-05-23T10:32:11.237Z,24.43
2018-05-23T10:33:20.819Z,24.5
2018-05-23T10:34:30.292Z,24.43
2018-05-23T10:35:39.511Z,24.43
2018-05-23T10:36:49.210Z,24.43
2018-05-23T10:37:59.217Z,24.39
2018-05-23T10:39:09.153Z,24.47
2018-05-23T10:40:19.032Z,24.37
2018-05-23T10:41:29.002Z,24.42
2018-05-23T10:42:38.175Z,24.47
2018-05-23T10:43:47.928Z,24.4
2018-05-23T10:44:56.938Z,24.42
2018-05-23T10:46:06.287Z,24.45
2018-05-23T10:47:15.760Z,24.46
2018-05-23T10:48:24.934Z,24.39
2018-05-23T10:49:34.383Z,24.42
2018-05-23T10:50:43.810Z,24.47
2018-05-23T10:51:53.515Z,24.42
2018-05-23T10:53:03.332Z,24.47
2018-05-23T10:54:12.783Z,24.43
2018-05-23T10:55:21.980Z,24.46
2018-05-23T10:56:31.454Z,24.45
2018-05-23T10:57:41.195Z,24.37
2018-05-23T10:58:50.406Z,24.4
2018-05-23T10:59:59.842Z,24.45
2018-05-23T11:01:09.287Z,24.43
2018-05-23T11:02:19.161Z,24.45
2018-05-23T11:03:28.623Z,24.47
2018-05-23T11:04:37.559Z,24.4
2018-05-23T11:05:47.219Z,24.37
2018-05-23T11:06:57.287Z,24.49
2018-05-23T11:08:06.483Z,24.46
2018-05-23T11:09:15.910Z,24.39
2018-05-23T11:10:25.122Z,24.43
2018-05-23T11:11:34.839Z,24.46
2018-05-23T11:12:44.319Z,24.45
2018-05-23T11:13:53.565Z,24.45
2018-05-23T11:15:02.868Z,24.45
2018-05-23T11:16:12.728Z,24.45
2018-05-23T11:17:22.194Z,24.4
2018-05-23T11:18:31.711Z,24.35
2018-05-23T11:19:41.200Z,24.42
2018-05-23T11:20:50.747Z,24.5
2018-05-23T11:22:00.035Z,24.49
2018-05-23T11:23:09.535Z,24.46
2018-05-23T11:24:19.310Z,24.46
2018-05-23T11:25:28.815Z,24.4
2018-05-23T11:26:38.609Z,24.47
2018-05-23T11:27:47.558Z,24.42
2018-05-23T11:28:56.573Z,24.49
2018-05-23T11:30:06.050Z,24.46
2018-05-23T11:31:14.980Z,24.45
2018-05-23T11:32:24.722Z,24.45
2018-05-23T11:33:33.939Z,24.46
2018-05-23T11:34:43.443Z,24.49
2018-05-23T11:35:53.209Z,24.43
2018-05-23T11:37:02.704Z,24.46
2018-05-23T11:38:12.764Z,24.45
2018-05-23T11:39:21.994Z,24.46
2018-05-23T11:40:31.465Z,24.46
2018-05-23T11:41:40.452Z,24.5
2018-05-23T11:42:49.679Z,24.46
2018-05-23T11:43:59.481Z,24.37
2018-05-23T11:45:09.286Z,24.47
2018-05-23T11:46:19.021Z,24.5
2018-05-23T11:47:28.837Z,24.43
2018-05-23T11:48:38.075Z,24.43
2018-05-23T11:49:47.334Z,24.52
2018-05-23T11:50:57.347Z,24.52
2018-05-23T11:52:06.605Z,24.5
2018-05-23T11:53:16.195Z,24.47
2018-05-23T11:54:25.137Z,24.49
2018-05-23T11:55:34.086Z,24.45
2018-05-23T11:56:43.013Z,24.46
2018-05-23T11:57:53.002Z,24.52
2018-05-23T11:59:02.725Z,24.52
2018-05-23T12:00:11.990Z,24.45
2018-05-23T12:01:21.265Z,24.52
2018-05-23T12:02:30.759Z,24.46
2018-05-23T12:03:40.262Z,24.45
2018-05-23T12:04:49.503Z,24.5
2018-05-23T12:05:59.207Z,24.49
2018-05-23T12:07:08.417Z,24.45
2018-05-23T12:08:17.877Z,24.49
2018-05-23T12:09:27.059Z,24.49
2018-05-23T12:10:36.524Z,24.55
2018-05-23T12:11:46.071Z,24.45
2018-05-23T12:12:55.057Z,24.46
2018-05-23T12:14:04.247Z,24.53
2018-05-23T12:15:13.654Z,24.46
2018-05-23T12:16:23.102Z,24.46
2018-05-23T12:17:32.323Z,24.45
2018-05-23T12:18:41.526Z,24.49
2018-05-23T12:19:50.961Z,24.49
2018-05-23T12:21:00.685Z,24.57
2018-05-23T12:22:10.150Z,24.49
2018-05-23T12:23:19.331Z,24.53
2018-05-23T12:24:28.839Z,24.49
2018-05-23T12:25:38.572Z,24.49
2018-05-23T12:26:47.525Z,24.42
2018-05-23T12:27:56.972Z,24.46
2018-05-23T12:29:06.229Z,24.5
2018-05-23T12:30:15.415Z,24.46
2018-05-23T12:31:24.601Z,24.5
2018-05-23T12:32:34.052Z,24.46
2018-05-23T12:33:43.479Z,24.47
2018-05-23T12:34:53.451Z,24.55
2018-05-23T12:36:02.898Z,24.47
2018-05-23T12:37:11.619Z,24.47
2018-05-23T12:38:20.847Z,24.42
2018-05-23T12:39:30.281Z,24.45
2018-05-23T12:40:39.735Z,24.5
2018-05-23T12:41:49.170Z,24.5
2018-05-23T12:42:59.160Z,24.58
2018-05-23T12:44:08.589Z,24.47
2018-05-23T12:45:17.787Z,24.5
2018-05-23T12:46:27.262Z,24.5
2018-05-23T12:47:36.467Z,24.49
2018-05-23T12:48:46.186Z,24.47
2018-05-23T12:49:55.400Z,24.55
2018-05-23T12:51:04.874Z,24.46
2018-05-23T12:52:14.405Z,24.49
2018-05-23T12:53:23.863Z,24.49
2018-05-23T12:54:33.841Z,24.47
2018-05-23T12:55:43.902Z,24.46
2018-05-23T12:56:52.854Z,24.49
2018-05-23T12:58:02.350Z,24.5
2018-05-23T12:59:11.552Z,24.46
2018-05-23T13:00:20.519Z,24.52
2018-05-23T13:01:29.731Z,24.53
2018-05-23T13:02:38.690Z,24.46
2018-05-23T13:03:48.220Z,24.55
2018-05-23T13:04:58.233Z,24.5
2018-05-23T13:06:08.094Z,24.52
2018-05-23T13:07:17.357Z,24.45
2018-05-23T13:08:26.813Z,24.47
2018-05-23T13:09:36.844Z,24.52
2018-05-23T13:10:46.308Z,24.47
2018-05-23T13:11:55.554Z,24.47
2018-05-23T13:13:05.048Z,24.42
2018-05-23T13:14:14.247Z,24.57
2018-05-23T13:15:23.952Z,24.55
2018-05-23T13:16:33.673Z,24.53
2018-05-23T13:17:43.386Z,24.55
2018-05-23T13:18:53.133Z,24.49
2018-05-23T13:20:02.338Z,24.52
2018-05-23T13:21:12.097Z,24.46
2018-05-23T13:22:21.597Z,24.49
2018-05-23T13:23:31.029Z,24.47
2018-05-23T13:24:40.214Z,24.46
2018-05-23T13:25:49.507Z,24.53
2018-05-23T13:26:59.318Z,24.42
2018-05-23T13:28:08.540Z,24.53
2018-05-23T13:29:18.367Z,24.5
2018-05-23T13:30:27.876Z,24.47
2018-05-23T13:31:36.831Z,24.52
2018-05-23T13:32:46.296Z,24.49
2018-05-23T13:33:55.849Z,24.58
2018-05-23T13:35:05.382Z,24.55
2018-05-23T13:36:14.934Z,24.5
2018-05-23T13:37:24.385Z,24.47
2018-05-23T13:38:33.343Z,24.49
2018-05-23T13:39:42.772Z,24.46
2018-05-23T13:40:52.461Z,24.46
2018-05-23T13:42:01.705Z,24.46
2018-05-23T13:43:11.174Z,24.5
2018-05-23T13:44:20.664Z,24.49
2018-05-23T13:45:30.181Z,24.52
2018-05-23T13:46:39.209Z,24.46
2018-05-23T13:47:48.743Z,24.47
2018-05-23T13:48:57.725Z,24.5
2018-05-23T13:50:07.180Z,24.47
2018-05-23T13:51:16.122Z,24.49
2018-05-23T13:52:25.040Z,24.55
2018-05-23T13:53:34.222Z,24.52
2018-05-23T13:54:43.933Z,24.49
2018-05-23T13:55:53.101Z,24.52
2018-05-23T13:57:02.259Z,24.53
2018-05-23T13:58:11.451Z,24.52
2018-05-23T13:59:20.966Z,24.55
2018-05-23T14:00:30.129Z,24.47
2018-05-23T14:01:39.318Z,24.46
2018-05-23T14:02:49.342Z,24.53
2018-05-23T14:03:59.030Z,24.5
2018-05-23T14:05:09.010Z,24.46
2018-05-23T14:06:18.218Z,24.47
2018-05-23T14:07:27.947Z,24.57
2018-05-23T14:08:37.143Z,24.55
2018-05-23T14:09:46.406Z,24.57
2018-05-23T14:10:55.557Z,24.53
2018-05-23T14:12:04.757Z,24.52
2018-05-23T14:13:14.199Z,24.52
2018-05-23T14:14:22.857Z,24.55
2018-05-23T14:15:32.095Z,24.55
2018-05-23T14:16:41.268Z,24.5
2018-05-23T14:17:50.450Z,24.46
2018-05-23T14:18:59.385Z,24.53
2018-05-23T14:20:09.215Z,24.57
2018-05-23T14:21:18.651Z,24.58
2018-05-23T14:22:28.079Z,24.53
2018-05-23T14:23:37.018Z,24.5
2018-05-23T14:24:46.983Z,24.5
2018-05-23T14:25:56.755Z,24.52
2018-05-23T14:27:06.276Z,24.52
2018-05-23T14:28:15.300Z,24.57
2018-05-23T14:29:24.790Z,24.45
2018-05-23T14:30:34.033Z,24.49
2018-05-23T14:31:43.270Z,24.49
2018-05-23T14:32:52.506Z,24.52
2018-05-23T14:34:02.240Z,24.52
2018-05-23T14:35:11.434Z,24.53
2018-05-23T14:36:20.914Z,24.52
2018-05-23T14:37:30.990Z,24.5
2018-05-23T14:38:40.465Z,24.53
2018-05-23T14:39:49.445Z,24.53
2018-05-23T14:40:58.942Z,24.52
2018-05-23T14:42:07.942Z,24.52
2018-05-23T14:43:16.909Z,24.57
2018-05-23T14:44:26.159Z,24.55
2018-05-23T14:45:35.366Z,24.47
2018-05-23T14:46:44.545Z,24.55
2018-05-23T14:47:53.491Z,24.58
2018-05-23T14:49:02.982Z,24.53
2018-05-23T14:50:12.779Z,24.62
2018-05-23T14:51:22.549Z,24.62
2018-05-23T14:52:31.802Z,24.58
2018-05-23T14:53:41.285Z,24.55
2018-05-23T14:54:50.768Z,24.58
2018-05-23T14:55:59.487Z,24.57
2018-05-23T14:57:09.264Z,24.58
2018-05-23T14:58:18.751Z,24.58